Oatsville, Indiana
Current Conditions -  °F | °C
As of 12:15 PM on Saturday 25 Oct 2014 (Local Time) from KDCY Reporting Station
Clear Clear  
Wind Chill: 71°   Ceiling: Unl
Heat Index: 71°   Visibility: 10mi
Dew Point: 60°   Wind: 5mph
Humidity: 67%   Direction: 260°W
Pressure: 29.99"   Gusts: NA
Location:  38.4723°N, 87.3105°W
Report Text: KDCY 251715Z AUTO 26004KT 10SM CLR 22/15 A2999 RMK AO2 T02180154
Loading
Personal Weather Stations






























Interactive Weather Map
Tropical Storm Tracking
New forecast layout! Learn more

10-Day Weather Forecast

Advertisements
Track Severe Weather on mobile